createdAt,value
2017-11-18T00:01:00.425Z,18.90
2017-11-18T00:02:05.746Z,18.90
2017-11-18T00:03:11.274Z,18.80
2017-11-18T00:04:16.347Z,18.80
2017-11-18T00:05:21.493Z,18.80
2017-11-18T00:06:27.399Z,18.80
2017-11-18T00:07:32.615Z,18.80
2017-11-18T00:08:39.054Z,18.80
2017-11-18T00:09:44.325Z,18.80
2017-11-18T00:10:49.458Z,18.80
2017-11-18T00:11:54.782Z,18.80
2017-11-18T00:12:59.971Z,18.80
2017-11-18T00:14:05.108Z,18.80
2017-11-18T00:15:11.338Z,18.80
2017-11-18T00:16:16.927Z,18.80
2017-11-18T00:17:22.099Z,18.80
2017-11-18T00:18:27.373Z,18.80
2017-11-18T00:19:32.987Z,18.80
2017-11-18T00:20:38.224Z,18.80
2017-11-18T00:21:44.151Z,18.80
2017-11-18T00:22:49.697Z,18.80
2017-11-18T00:23:55.082Z,18.80
2017-11-18T00:25:00.378Z,18.80
2017-11-18T00:26:05.676Z,18.80
2017-11-18T00:27:11.109Z,18.80
2017-11-18T00:28:16.496Z,18.80
2017-11-18T00:29:21.825Z,18.80
2017-11-18T00:30:27.050Z,18.80
2017-11-18T00:31:32.708Z,18.80
2017-11-18T00:32:37.735Z,18.80
2017-11-18T00:33:42.506Z,18.80
2017-11-18T00:34:47.339Z,18.70
2017-11-18T00:35:51.941Z,18.70
2017-11-18T00:36:56.656Z,18.70
2017-11-18T00:38:01.387Z,18.70
2017-11-18T00:39:06.236Z,18.70
2017-11-18T00:40:11.033Z,18.70
2017-11-18T00:41:15.727Z,18.70
2017-11-18T00:42:20.300Z,18.70
2017-11-18T00:43:24.885Z,18.70
2017-11-18T00:44:29.739Z,18.70
2017-11-18T00:45:34.424Z,18.70
2017-11-18T00:46:39.248Z,18.70
2017-11-18T00:47:43.945Z,18.70
2017-11-18T00:48:48.673Z,18.70
2017-11-18T00:49:53.495Z,18.70
2017-11-18T00:50:58.036Z,18.70
2017-11-18T00:52:02.740Z,18.70
2017-11-18T00:53:07.376Z,18.70
2017-11-18T00:54:12.206Z,18.60
2017-11-18T00:55:16.938Z,18.60
2017-11-18T00:56:21.516Z,18.60
2017-11-18T00:57:26.056Z,18.60
2017-11-18T00:58:30.866Z,18.60
2017-11-18T00:59:35.597Z,18.60
2017-11-18T01:00:40.316Z,18.60
2017-11-18T01:01:45.135Z,18.60
2017-11-18T01:02:49.995Z,18.60
2017-11-18T01:03:54.544Z,18.60
2017-11-18T01:04:59.385Z,18.60
2017-11-18T01:06:04.071Z,18.60
2017-11-18T01:07:08.773Z,18.60
2017-11-18T01:08:13.466Z,18.60
2017-11-18T01:09:18.193Z,18.60
2017-11-18T01:10:22.784Z,18.60
2017-11-18T01:11:27.617Z,18.60
2017-11-18T01:12:32.177Z,18.60
2017-11-18T01:13:36.886Z,18.60
2017-11-18T01:14:41.633Z,18.60
2017-11-18T01:15:46.358Z,18.60
2017-11-18T01:16:51.038Z,18.60
2017-11-18T01:17:55.718Z,18.60
2017-11-18T01:19:00.425Z,18.60
2017-11-18T01:20:05.038Z,18.60
2017-11-18T01:21:09.605Z,18.60
2017-11-18T01:22:14.319Z,18.60
2017-11-18T01:23:19.237Z,18.60
2017-11-18T01:24:23.820Z,18.60
2017-11-18T01:25:28.532Z,18.60
2017-11-18T01:26:33.358Z,18.60
2017-11-18T01:27:38.156Z,18.60
2017-11-18T01:28:42.709Z,18.60
2017-11-18T01:29:47.424Z,18.60
2017-11-18T01:30:52.044Z,18.50
2017-11-18T01:31:56.826Z,18.50
2017-11-18T01:33:01.562Z,18.50
2017-11-18T01:34:06.396Z,18.50
2017-11-18T01:35:11.092Z,18.50
2017-11-18T01:36:15.632Z,18.50
2017-11-18T01:37:20.327Z,18.50
2017-11-18T01:38:25.157Z,18.50
2017-11-18T01:39:29.841Z,18.50
2017-11-18T01:40:34.659Z,18.50
2017-11-18T01:41:39.558Z,18.50
2017-11-18T01:42:44.252Z,18.50
2017-11-18T01:43:48.990Z,18.50
2017-11-18T01:44:53.725Z,18.50
2017-11-18T01:45:58.407Z,18.50
2017-11-18T01:47:03.240Z,18.50
2017-11-18T01:48:07.773Z,18.50
2017-11-18T01:49:12.358Z,18.50
2017-11-18T01:50:17.206Z,18.50
2017-11-18T01:51:22.031Z,18.50
2017-11-18T01:52:26.569Z,18.50
2017-11-18T01:53:31.270Z,18.50
2017-11-18T01:54:35.988Z,18.50
2017-11-18T01:55:40.703Z,18.50
2017-11-18T01:56:45.325Z,18.50
2017-11-18T01:57:50.029Z,18.50
2017-11-18T01:58:54.639Z,18.50
2017-11-18T01:59:59.160Z,18.50
2017-11-18T02:01:03.894Z,18.50
2017-11-18T02:02:08.463Z,18.50
2017-11-18T02:03:13.063Z,18.50
2017-11-18T02:04:17.766Z,18.50
2017-11-18T02:05:22.488Z,18.50
2017-11-18T02:06:27.230Z,18.50
2017-11-18T02:07:31.962Z,18.50
2017-11-18T02:08:36.558Z,18.50
2017-11-18T02:09:41.271Z,18.50
2017-11-18T02:10:45.965Z,18.50
2017-11-18T02:11:50.510Z,18.50
2017-11-18T02:12:55.392Z,18.50
2017-11-18T02:13:59.954Z,18.50
2017-11-18T02:15:04.550Z,18.50
2017-11-18T02:16:09.104Z,18.50
2017-11-18T02:17:13.974Z,18.50
2017-11-18T02:18:18.682Z,18.50
2017-11-18T02:19:23.231Z,18.50
2017-11-18T02:20:27.865Z,18.50
2017-11-18T02:21:32.568Z,18.50
2017-11-18T02:22:37.166Z,18.50
2017-11-18T02:23:41.874Z,18.50
2017-11-18T02:24:46.422Z,18.50
2017-11-18T02:25:51.112Z,18.50
2017-11-18T02:26:55.849Z,18.40
2017-11-18T02:28:00.585Z,18.50
2017-11-18T02:29:05.303Z,18.40
2017-11-18T02:30:10.099Z,18.40
2017-11-18T02:31:14.952Z,18.50
2017-11-18T02:32:19.528Z,18.50
2017-11-18T02:33:24.343Z,18.50
2017-11-18T02:34:29.030Z,18.50
2017-11-18T02:35:33.749Z,18.50
2017-11-18T02:36:38.360Z,18.50
2017-11-18T02:37:43.052Z,18.50
2017-11-18T02:38:47.605Z,18.50
2017-11-18T02:39:52.421Z,18.50
2017-11-18T02:40:57.105Z,18.50
2017-11-18T02:42:01.655Z,18.50
2017-11-18T02:43:06.402Z,18.40
2017-11-18T02:44:11.180Z,18.50
2017-11-18T02:45:15.875Z,18.50
2017-11-18T02:46:20.708Z,18.50
2017-11-18T02:47:25.630Z,18.50
2017-11-18T02:48:30.210Z,18.50
2017-11-18T02:49:34.826Z,18.50
2017-11-18T02:50:39.657Z,18.40
2017-11-18T02:51:44.474Z,18.40
2017-11-18T02:52:49.304Z,18.50
2017-11-18T02:53:53.869Z,18.40
2017-11-18T02:54:58.435Z,18.40
2017-11-18T02:56:03.297Z,18.40
2017-11-18T02:57:08.242Z,18.40
2017-11-18T02:58:12.783Z,18.40
2017-11-18T02:59:17.391Z,18.40
2017-11-18T03:00:21.992Z,18.40
2017-11-18T03:01:26.669Z,18.40
2017-11-18T03:02:31.343Z,18.40
2017-11-18T03:03:36.045Z,18.40
2017-11-18T03:04:40.772Z,18.40
2017-11-18T03:05:45.314Z,18.40
2017-11-18T03:06:49.931Z,18.40
2017-11-18T03:07:54.779Z,18.40
2017-11-18T03:08:59.334Z,18.40
2017-11-18T03:10:03.920Z,18.40
2017-11-18T03:11:08.601Z,18.40
2017-11-18T03:12:13.447Z,18.40
2017-11-18T03:13:18.115Z,18.40
2017-11-18T03:14:23.121Z,18.40
2017-11-18T03:15:27.853Z,18.40
2017-11-18T03:16:32.410Z,18.40
2017-11-18T03:17:37.270Z,18.40
2017-11-18T03:18:42.079Z,18.40
2017-11-18T03:19:46.878Z,18.40
2017-11-18T03:20:51.579Z,18.40
2017-11-18T03:21:56.398Z,18.40
2017-11-18T03:23:01.298Z,18.40
2017-11-18T03:24:05.874Z,18.40
2017-11-18T03:25:10.715Z,18.40
2017-11-18T03:26:15.423Z,18.40
2017-11-18T03:27:20.112Z,18.40
2017-11-18T03:28:24.654Z,18.40
2017-11-18T03:29:29.456Z,18.40
2017-11-18T03:30:34.178Z,18.40
2017-11-18T03:31:38.897Z,18.40
2017-11-18T03:32:43.764Z,18.40
2017-11-18T03:33:48.468Z,18.40
2017-11-18T03:34:53.290Z,18.40
2017-11-18T03:35:57.823Z,18.40
2017-11-18T03:37:02.630Z,18.40
2017-11-18T03:38:07.339Z,18.40
2017-11-18T03:39:11.875Z,18.40
2017-11-18T03:40:16.573Z,18.40
2017-11-18T03:41:21.279Z,18.40
2017-11-18T03:42:25.841Z,18.40
2017-11-18T03:43:30.523Z,18.40
2017-11-18T03:44:35.374Z,18.40
2017-11-18T03:45:39.973Z,18.40
2017-11-18T03:46:44.528Z,18.30
2017-11-18T03:47:49.256Z,18.30
2017-11-18T03:48:54.004Z,18.30
2017-11-18T03:49:58.691Z,18.30
2017-11-18T03:51:03.375Z,18.30
2017-11-18T03:52:08.075Z,18.30
2017-11-18T03:53:12.750Z,18.30
2017-11-18T03:54:17.510Z,18.30
2017-11-18T03:55:22.066Z,18.30
2017-11-18T03:56:26.904Z,18.30
2017-11-18T03:57:31.624Z,18.30
2017-11-18T03:58:36.474Z,18.30
2017-11-18T03:59:41.060Z,18.30
2017-11-18T04:00:45.646Z,18.30
2017-11-18T04:01:50.302Z,18.30
2017-11-18T04:02:54.972Z,18.30
2017-11-18T04:03:59.519Z,18.30
2017-11-18T04:05:04.204Z,18.30
2017-11-18T04:06:08.891Z,18.30
2017-11-18T04:07:13.448Z,18.30
2017-11-18T04:08:18.048Z,18.30
2017-11-18T04:09:22.721Z,18.30
2017-11-18T04:10:27.278Z,18.30
2017-11-18T04:11:32.103Z,18.30
2017-11-18T04:12:36.832Z,18.30
2017-11-18T04:13:41.415Z,18.30
2017-11-18T04:14:46.242Z,18.30
2017-11-18T04:15:50.988Z,18.30
2017-11-18T04:16:55.843Z,18.30
2017-11-18T04:18:00.511Z,18.40
2017-11-18T04:19:05.351Z,18.30
2017-11-18T04:20:10.070Z,18.30
2017-11-18T04:21:14.609Z,18.30
2017-11-18T04:22:19.363Z,18.30
2017-11-18T04:23:23.927Z,18.30
2017-11-18T04:24:28.774Z,18.30
2017-11-18T04:25:34.896Z,18.30
2017-11-18T04:26:40.057Z,18.30
2017-11-18T04:27:45.121Z,18.30
2017-11-18T04:28:50.303Z,18.30
2017-11-18T04:29:55.250Z,18.30
2017-11-18T04:31:00.489Z,18.30
2017-11-18T04:32:05.530Z,18.30
2017-11-18T04:33:10.648Z,18.30
2017-11-18T04:34:15.578Z,18.30
2017-11-18T04:35:20.533Z,18.30
2017-11-18T04:36:25.366Z,18.30
2017-11-18T04:37:30.532Z,18.30
2017-11-18T04:38:35.692Z,18.30
2017-11-18T04:39:40.709Z,18.30
2017-11-18T04:40:45.545Z,18.30
2017-11-18T04:41:50.668Z,18.30
2017-11-18T04:42:56.186Z,18.30
2017-11-18T04:44:01.300Z,18.30
2017-11-18T04:45:06.272Z,18.30
2017-11-18T04:46:11.040Z,18.30
2017-11-18T04:47:15.794Z,18.30
2017-11-18T04:48:20.948Z,18.30
2017-11-18T04:49:25.998Z,18.30
2017-11-18T04:50:30.949Z,18.30
2017-11-18T04:51:35.947Z,18.30
2017-11-18T04:52:41.139Z,18.30
2017-11-18T04:53:46.229Z,18.30
2017-11-18T04:54:51.243Z,18.30
2017-11-18T04:55:56.253Z,18.30
2017-11-18T04:57:01.219Z,18.30
2017-11-18T04:58:06.097Z,18.30
2017-11-18T04:59:10.983Z,18.30
2017-11-18T05:00:16.447Z,18.30
2017-11-18T05:01:21.914Z,18.40
2017-11-18T05:02:26.911Z,18.30
2017-11-18T05:03:32.371Z,18.30
2017-11-18T05:04:37.452Z,18.30
2017-11-18T05:05:42.706Z,18.30
2017-11-18T05:06:47.916Z,18.30
2017-11-18T05:07:52.951Z,18.30
2017-11-18T05:08:57.863Z,18.30
2017-11-18T05:10:03.074Z,18.30
2017-11-18T05:11:08.134Z,18.30
2017-11-18T05:12:13.998Z,18.30
2017-11-18T05:13:19.238Z,18.30
2017-11-18T05:14:24.081Z,18.30
2017-11-18T05:15:29.318Z,18.30
2017-11-18T05:16:34.131Z,18.30
2017-11-18T05:17:38.865Z,18.30
2017-11-18T05:18:44.615Z,18.30
2017-11-18T05:19:49.767Z,18.30
2017-11-18T05:20:55.853Z,18.30
2017-11-18T05:22:01.031Z,18.30
2017-11-18T05:23:05.921Z,18.30
2017-11-18T05:24:10.976Z,18.30
2017-11-18T05:25:16.097Z,18.30
2017-11-18T05:26:21.249Z,18.30
2017-11-18T05:27:26.372Z,18.30
2017-11-18T05:28:31.412Z,18.30
2017-11-18T05:29:36.320Z,18.30
2017-11-18T05:30:41.957Z,18.30
2017-11-18T05:31:47.179Z,18.30
2017-11-18T05:32:52.466Z,18.30
2017-11-18T05:33:57.676Z,18.30
2017-11-18T05:35:03.030Z,18.30
2017-11-18T05:36:08.390Z,18.30
2017-11-18T05:37:14.594Z,18.30
2017-11-18T05:38:19.696Z,18.30
2017-11-18T05:39:24.789Z,18.30
2017-11-18T05:40:29.771Z,18.30
2017-11-18T05:41:34.999Z,18.30
2017-11-18T05:42:40.171Z,18.30
2017-11-18T05:43:45.250Z,18.30
2017-11-18T05:44:50.408Z,18.30
2017-11-18T05:45:55.742Z,18.30
2017-11-18T05:47:01.541Z,18.30
2017-11-18T05:48:06.851Z,18.30
2017-11-18T05:49:12.032Z,18.30
2017-11-18T05:50:16.908Z,18.30
2017-11-18T05:51:21.843Z,18.30
2017-11-18T05:52:28.154Z,18.30
2017-11-18T05:53:33.247Z,18.30
2017-11-18T05:54:38.688Z,18.30
2017-11-18T05:55:43.469Z,18.30
2017-11-18T05:56:48.460Z,18.30
2017-11-18T05:57:53.533Z,18.30
2017-11-18T05:58:58.687Z,18.30
2017-11-18T06:00:03.917Z,18.30
2017-11-18T06:01:08.944Z,18.30
2017-11-18T06:02:14.056Z,18.30
2017-11-18T06:03:19.340Z,18.30
2017-11-18T06:04:24.502Z,18.30
2017-11-18T06:05:29.919Z,18.30
2017-11-18T06:06:35.059Z,18.30
2017-11-18T06:07:40.181Z,18.30
2017-11-18T06:08:45.618Z,18.30
2017-11-18T06:09:50.596Z,18.30
2017-11-18T06:10:55.707Z,18.30
2017-11-18T06:12:00.966Z,18.30
2017-11-18T06:13:06.078Z,18.30
2017-11-18T06:14:11.207Z,18.30
2017-11-18T06:15:16.278Z,18.30
2017-11-18T06:16:21.308Z,18.30
2017-11-18T06:17:26.196Z,18.30
2017-11-18T06:18:31.145Z,18.30
2017-11-18T06:19:37.699Z,18.30
2017-11-18T06:20:42.690Z,18.30
2017-11-18T06:21:47.626Z,18.30
2017-11-18T06:22:52.465Z,18.30
2017-11-18T06:23:57.568Z,18.30
2017-11-18T06:25:02.861Z,18.30
2017-11-18T06:26:08.156Z,18.30
2017-11-18T06:27:13.782Z,18.30
2017-11-18T06:28:18.667Z,18.30
2017-11-18T06:29:23.831Z,18.30
2017-11-18T06:30:29.116Z,18.30
2017-11-18T06:31:34.269Z,18.30
2017-11-18T06:32:39.174Z,18.30
2017-11-18T06:33:44.453Z,18.30
2017-11-18T06:34:49.649Z,18.30
2017-11-18T06:35:54.700Z,18.30
2017-11-18T06:36:59.859Z,18.30
2017-11-18T06:38:06.446Z,18.30
2017-11-18T06:39:11.790Z,18.30
2017-11-18T06:40:16.808Z,18.30
2017-11-18T06:41:22.010Z,18.30
2017-11-18T06:42:26.948Z,18.30
2017-11-18T06:43:31.800Z,18.30
2017-11-18T06:44:37.434Z,18.30
2017-11-18T06:45:42.748Z,18.40
2017-11-18T06:46:47.701Z,18.40
2017-11-18T06:47:52.741Z,18.50
2017-11-18T06:48:57.723Z,18.50
2017-11-18T06:50:02.830Z,18.50
2017-11-18T06:51:08.110Z,18.50
2017-11-18T06:52:13.317Z,18.60
2017-11-18T06:53:18.700Z,18.60
2017-11-18T06:54:24.390Z,18.60
2017-11-18T06:55:29.526Z,18.60
2017-11-18T06:56:34.645Z,18.70
2017-11-18T06:57:40.037Z,18.80
2017-11-18T06:58:45.134Z,18.80
2017-11-18T06:59:50.283Z,18.90
2017-11-18T07:00:55.947Z,18.90
2017-11-18T07:02:01.099Z,19.00
2017-11-18T07:03:06.172Z,19.10
2017-11-18T07:04:11.322Z,19.10
2017-11-18T07:05:17.376Z,19.20
2017-11-18T07:06:22.403Z,19.30
2017-11-18T07:07:27.559Z,19.30
2017-11-18T07:08:32.710Z,19.40
2017-11-18T07:09:37.940Z,19.40
2017-11-18T07:10:43.129Z,19.40
2017-11-18T07:11:48.792Z,19.50
2017-11-18T07:12:55.016Z,19.50
2017-11-18T07:14:00.050Z,19.60
2017-11-18T07:15:05.353Z,19.60
2017-11-18T07:16:10.390Z,19.60
2017-11-18T07:17:15.603Z,19.60
2017-11-18T07:18:20.930Z,19.60
2017-11-18T07:19:26.086Z,19.50
2017-11-18T07:20:31.137Z,19.50
2017-11-18T07:21:36.436Z,19.40
2017-11-18T07:22:41.964Z,19.40
2017-11-18T07:23:47.116Z,19.40
2017-11-18T07:24:52.263Z,19.40
2017-11-18T07:25:57.283Z,19.40
2017-11-18T07:27:02.473Z,19.40
2017-11-18T07:28:07.602Z,19.30
2017-11-18T07:29:12.601Z,19.30
2017-11-18T07:30:18.297Z,19.30
2017-11-18T07:31:23.692Z,19.30
2017-11-18T07:32:28.934Z,19.30
2017-11-18T07:33:34.094Z,19.30
2017-11-18T07:34:39.184Z,19.30
2017-11-18T07:35:47.119Z,19.30
2017-11-18T07:36:52.030Z,19.30
2017-11-18T07:37:57.650Z,19.30
2017-11-18T07:39:03.210Z,19.30
2017-11-18T07:40:08.723Z,19.30
2017-11-18T07:41:13.828Z,19.30
2017-11-18T07:42:18.961Z,19.20
2017-11-18T07:43:24.160Z,19.30
2017-11-18T07:44:29.428Z,19.20
2017-11-18T07:45:36.942Z,19.30
2017-11-18T07:46:42.053Z,19.20
2017-11-18T07:47:47.252Z,19.20
2017-11-18T07:48:52.280Z,19.20
2017-11-18T07:49:57.717Z,19.20
2017-11-18T07:51:03.153Z,19.20
2017-11-18T07:52:08.249Z,19.20
2017-11-18T07:53:13.491Z,19.20
2017-11-18T07:54:18.653Z,19.20
2017-11-18T07:55:24.613Z,19.20
2017-11-18T07:56:30.155Z,19.20
2017-11-18T07:57:35.464Z,19.20
2017-11-18T07:58:40.470Z,19.20
2017-11-18T07:59:45.772Z,19.20
2017-11-18T08:00:50.856Z,19.20
2017-11-18T08:01:58.152Z,19.10
2017-11-18T08:03:03.492Z,19.10
2017-11-18T08:04:08.649Z,19.10
2017-11-18T08:05:14.098Z,19.10
2017-11-18T08:06:19.096Z,19.10
2017-11-18T08:07:25.555Z,19.10
2017-11-18T08:08:30.855Z,19.10
2017-11-18T08:09:36.667Z,19.10
2017-11-18T08:10:41.932Z,19.10
2017-11-18T08:11:47.435Z,19.10
2017-11-18T08:12:52.751Z,19.10
2017-11-18T08:13:57.904Z,19.10
2017-11-18T08:15:03.303Z,19.10
2017-11-18T08:16:08.540Z,19.10
2017-11-18T08:17:13.813Z,19.00
2017-11-18T08:18:18.902Z,19.00
2017-11-18T08:19:24.298Z,19.00
2017-11-18T08:20:29.702Z,19.00
2017-11-18T08:21:34.814Z,19.00
2017-11-18T08:22:40.572Z,19.00
2017-11-18T08:23:46.212Z,19.00
2017-11-18T08:24:51.396Z,19.00
2017-11-18T08:25:56.495Z,19.00
2017-11-18T08:27:01.887Z,19.00
2017-11-18T08:28:07.226Z,19.00
2017-11-18T08:29:12.542Z,19.00
2017-11-18T08:30:17.985Z,19.00
2017-11-18T08:31:24.194Z,19.00
2017-11-18T08:32:29.793Z,19.00
2017-11-18T08:33:35.562Z,19.00
2017-11-18T08:34:41.461Z,19.00
2017-11-18T08:35:46.712Z,19.00
2017-11-18T08:36:52.090Z,18.90
2017-11-18T08:37:57.295Z,18.90
2017-11-18T08:39:04.206Z,18.90
2017-11-18T08:40:09.519Z,19.00
2017-11-18T08:41:15.235Z,19.00
2017-11-18T08:42:20.728Z,18.90
2017-11-18T08:43:25.827Z,18.90
2017-11-18T08:44:30.882Z,18.90
2017-11-18T08:45:36.395Z,19.00
2017-11-18T08:46:41.872Z,19.00
2017-11-18T08:47:46.952Z,19.00
2017-11-18T08:48:52.210Z,19.00
2017-11-18T08:49:58.150Z,19.00
2017-11-18T08:51:03.745Z,19.00
2017-11-18T08:52:08.836Z,18.90
2017-11-18T08:53:14.401Z,18.90
2017-11-18T08:54:20.681Z,18.90
2017-11-18T08:55:26.789Z,18.90
2017-11-18T08:56:33.153Z,18.90
2017-11-18T08:57:38.991Z,18.90
2017-11-18T08:58:44.855Z,18.90
2017-11-18T08:59:50.393Z,18.90
2017-11-18T09:00:55.624Z,18.90
2017-11-18T09:02:01.735Z,18.90
2017-11-18T09:03:07.106Z,18.90
2017-11-18T09:04:12.361Z,18.90
2017-11-18T09:05:19.545Z,18.90
2017-11-18T09:06:24.876Z,18.90
2017-11-18T09:07:31.825Z,18.90
2017-11-18T09:08:37.272Z,18.90
2017-11-18T09:09:42.484Z,18.90
2017-11-18T09:10:47.921Z,18.90
2017-11-18T09:11:53.161Z,18.90
2017-11-18T09:12:58.602Z,18.90
2017-11-18T09:14:04.195Z,18.90
2017-11-18T09:15:09.626Z,18.90
2017-11-18T09:16:15.121Z,18.90
2017-11-18T09:17:20.857Z,18.90
2017-11-18T09:18:26.352Z,18.90
2017-11-18T09:19:31.683Z,18.90
2017-11-18T09:20:37.559Z,18.90
2017-11-18T09:21:43.502Z,18.90
2017-11-18T09:22:49.172Z,18.90
2017-11-18T09:23:54.259Z,18.80
2017-11-18T09:24:59.388Z,18.90
2017-11-18T09:26:04.717Z,18.80
2017-11-18T09:27:10.271Z,18.80
2017-11-18T09:28:15.508Z,18.80
2017-11-18T09:29:21.144Z,18.80
2017-11-18T09:30:26.580Z,18.80
2017-11-18T09:31:31.764Z,18.80
2017-11-18T09:32:37.083Z,18.80
2017-11-18T09:33:42.714Z,18.80
2017-11-18T09:34:49.035Z,18.80
2017-11-18T09:35:55.290Z,18.80
2017-11-18T09:37:02.118Z,18.90
2017-11-18T09:38:08.262Z,18.90
2017-11-18T09:39:14.904Z,18.90
2017-11-18T09:40:21.110Z,18.90
2017-11-18T09:41:26.989Z,18.90
2017-11-18T09:42:33.521Z,18.90
2017-11-18T09:43:39.122Z,18.90
2017-11-18T09:44:44.471Z,18.90
2017-11-18T09:45:50.020Z,18.90
2017-11-18T09:46:56.030Z,18.90
2017-11-18T09:48:02.013Z,18.90
2017-11-18T09:49:07.656Z,18.90
2017-11-18T09:50:13.852Z,18.90
2017-11-18T09:51:20.305Z,18.90
2017-11-18T09:52:25.868Z,18.90
2017-11-18T09:53:31.693Z,18.90
2017-11-18T09:54:36.934Z,18.90
2017-11-18T09:55:42.517Z,18.90
2017-11-18T09:56:48.310Z,18.90
2017-11-18T09:57:53.989Z,18.90
2017-11-18T09:58:59.302Z,18.90
2017-11-18T10:00:04.987Z,18.90
2017-11-18T10:01:10.367Z,18.90
2017-11-18T10:02:15.919Z,18.90
2017-11-18T10:03:21.681Z,18.90
2017-11-18T10:04:27.321Z,18.90
2017-11-18T10:05:32.661Z,18.90
2017-11-18T10:06:39.589Z,18.80
2017-11-18T10:07:44.910Z,18.80
2017-11-18T10:08:50.360Z,18.80
2017-11-18T10:09:55.618Z,18.80
2017-11-18T10:11:00.749Z,18.80
2017-11-18T10:12:06.244Z,18.80
2017-11-18T10:13:11.777Z,18.80
2017-11-18T10:14:17.505Z,18.80
2017-11-18T10:15:23.064Z,18.80
2017-11-18T10:16:29.560Z,18.80
2017-11-18T10:17:34.918Z,18.80
2017-11-18T10:18:40.787Z,18.80
2017-11-18T10:19:46.018Z,18.80
2017-11-18T10:20:51.582Z,18.80
2017-11-18T10:21:56.701Z,18.70
2017-11-18T10:23:03.142Z,18.70
2017-11-18T10:24:08.876Z,18.70
2017-11-18T10:25:14.101Z,18.70
2017-11-18T10:26:19.909Z,18.70
2017-11-18T10:27:25.036Z,18.70
2017-11-18T10:28:30.880Z,18.70
2017-11-18T10:29:36.379Z,18.70
2017-11-18T10:30:41.696Z,18.70
2017-11-18T10:31:47.138Z,18.70
2017-11-18T10:32:52.574Z,18.80
2017-11-18T10:33:57.738Z,18.70
2017-11-18T10:35:03.357Z,18.50
2017-11-18T10:36:09.157Z,18.40
2017-11-18T10:37:14.855Z,18.40
2017-11-18T10:38:20.191Z,18.40
2017-11-18T10:39:26.204Z,18.50
2017-11-18T10:40:32.437Z,18.50
2017-11-18T10:41:39.134Z,18.50
2017-11-18T10:42:45.059Z,18.50
2017-11-18T10:43:51.408Z,18.50
2017-11-18T10:44:57.279Z,18.60
2017-11-18T10:46:03.598Z,18.60
2017-11-18T10:47:08.977Z,18.60
2017-11-18T10:48:14.686Z,18.60
2017-11-18T10:49:20.028Z,18.60
2017-11-18T10:50:25.723Z,18.60
2017-11-18T10:51:31.626Z,18.70
2017-11-18T10:52:37.963Z,18.70
2017-11-18T10:53:44.935Z,18.70
2017-11-18T10:54:51.299Z,18.70
2017-11-18T10:55:56.737Z,18.80
2017-11-18T10:57:02.369Z,18.80
2017-11-18T10:58:07.965Z,18.80
2017-11-18T10:59:16.556Z,18.80
2017-11-18T11:00:22.230Z,18.90
2017-11-18T11:01:28.018Z,18.90
2017-11-18T11:02:33.346Z,18.90
2017-11-18T11:03:38.849Z,18.90
2017-11-18T11:04:44.488Z,18.90
2017-11-18T11:05:49.961Z,18.90
2017-11-18T11:06:55.540Z,18.90
2017-11-18T11:08:02.984Z,19.00
2017-11-18T11:09:08.643Z,19.00
2017-11-18T11:10:14.062Z,19.00
2017-11-18T11:11:20.103Z,19.00
2017-11-18T11:12:25.645Z,19.00
2017-11-18T11:13:31.335Z,19.00
2017-11-18T11:14:36.789Z,19.00
2017-11-18T11:15:42.326Z,19.10
2017-11-18T11:16:48.046Z,19.10
2017-11-18T11:17:54.478Z,19.10
2017-11-18T11:19:00.044Z,19.10
2017-11-18T11:20:05.512Z,19.10
2017-11-18T11:21:11.355Z,19.10
2017-11-18T11:22:17.016Z,19.10
2017-11-18T11:23:23.521Z,19.10
2017-11-18T11:24:29.196Z,19.10
2017-11-18T11:25:34.227Z,19.10
2017-11-18T11:26:39.584Z,19.10
2017-11-18T11:27:45.559Z,19.10
2017-11-18T11:28:51.602Z,19.10
2017-11-18T11:29:56.873Z,19.10
2017-11-18T11:31:02.016Z,19.00
2017-11-18T11:32:07.555Z,19.00
2017-11-18T11:33:13.132Z,19.00
2017-11-18T11:34:20.152Z,19.00
2017-11-18T11:35:25.687Z,18.90
2017-11-18T11:36:31.280Z,18.90
2017-11-18T11:37:36.968Z,18.90
2017-11-18T11:38:55.439Z,18.90
2017-11-18T11:40:00.984Z,18.90
2017-11-18T11:41:06.760Z,18.90
2017-11-18T11:42:12.389Z,18.90
2017-11-18T11:43:17.928Z,18.90
2017-11-18T11:44:23.734Z,18.90
2017-11-18T11:45:28.899Z,18.90
2017-11-18T11:46:34.681Z,18.90
2017-11-18T11:47:40.609Z,18.90
2017-11-18T11:48:45.746Z,18.90
2017-11-18T11:49:51.368Z,18.80
2017-11-18T11:50:57.345Z,18.80
2017-11-18T11:52:02.822Z,18.80
2017-11-18T11:53:09.003Z,18.80
2017-11-18T11:54:14.312Z,18.80
2017-11-18T11:55:20.068Z,18.80
2017-11-18T11:56:25.527Z,18.80
2017-11-18T11:57:30.982Z,18.70
2017-11-18T11:58:36.213Z,18.70
2017-11-18T11:59:41.993Z,18.70
2017-11-18T12:00:47.656Z,18.70
2017-11-18T12:01:53.580Z,18.70
2017-11-18T12:02:59.173Z,18.70
2017-11-18T12:04:04.644Z,18.70
2017-11-18T12:05:09.971Z,18.70
2017-11-18T12:06:17.950Z,18.70
2017-11-18T12:07:23.040Z,18.70
2017-11-18T12:08:28.396Z,18.70
2017-11-18T12:09:34.138Z,18.70
2017-11-18T12:10:39.717Z,18.70
2017-11-18T12:11:45.070Z,18.70
2017-11-18T12:12:50.654Z,18.70
2017-11-18T12:13:55.911Z,18.70
2017-11-18T12:15:01.492Z,18.70
2017-11-18T12:16:06.713Z,18.70
2017-11-18T12:17:11.933Z,18.70
2017-11-18T12:18:18.204Z,18.70
2017-11-18T12:19:24.030Z,18.70
2017-11-18T12:20:30.369Z,18.70
2017-11-18T12:21:36.926Z,18.70
2017-11-18T12:22:43.266Z,18.70
2017-11-18T12:23:48.494Z,18.70
2017-11-18T12:24:54.137Z,18.70
2017-11-18T12:26:01.352Z,18.70
2017-11-18T12:27:06.936Z,18.60
2017-11-18T12:28:12.274Z,18.70
2017-11-18T12:29:17.371Z,18.60
2017-11-18T12:30:22.907Z,18.70
2017-11-18T12:31:28.144Z,18.70
2017-11-18T12:32:33.929Z,18.70
2017-11-18T12:33:40.171Z,18.60
2017-11-18T12:34:45.342Z,18.70
2017-11-18T12:35:50.920Z,18.70
2017-11-18T12:36:57.391Z,18.70
2017-11-18T12:38:03.038Z,18.70
2017-11-18T12:39:08.649Z,18.70
2017-11-18T12:40:15.302Z,18.70
2017-11-18T12:41:21.453Z,18.70
2017-11-18T12:42:27.054Z,18.70
2017-11-18T12:43:32.361Z,18.70
2017-11-18T12:44:38.218Z,18.70
2017-11-18T12:45:44.252Z,18.70
2017-11-18T12:46:50.379Z,18.70
2017-11-18T12:48:03.648Z,18.70
2017-11-18T12:49:17.067Z,18.70
2017-11-18T12:50:26.080Z,18.80
2017-11-18T12:51:34.600Z,18.80
2017-11-18T12:52:45.151Z,18.80
2017-11-18T12:53:52.300Z,18.80
2017-11-18T12:54:59.163Z,18.80
2017-11-18T12:56:04.529Z,18.80
2017-11-18T12:57:11.140Z,18.80
2017-11-18T12:58:18.235Z,18.80
2017-11-18T12:59:23.792Z,18.80
2017-11-18T13:00:30.028Z,18.80
2017-11-18T13:01:36.557Z,18.90
2017-11-18T13:02:42.215Z,18.90
2017-11-18T13:03:47.632Z,18.90
2017-11-18T13:04:53.505Z,19.00
2017-11-18T13:06:00.044Z,19.00
2017-11-18T13:07:05.783Z,19.10
2017-11-18T13:08:11.840Z,19.10
2017-11-18T13:09:20.673Z,19.20
2017-11-18T13:10:26.356Z,19.30
2017-11-18T13:11:31.683Z,19.30
2017-11-18T13:12:37.052Z,19.30
2017-11-18T13:13:43.903Z,19.40
2017-11-18T13:14:49.655Z,19.50
2017-11-18T13:15:55.108Z,19.60
2017-11-18T13:17:00.577Z,19.70
2017-11-18T13:18:08.846Z,19.80
2017-11-18T13:19:15.377Z,19.90
2017-11-18T13:20:21.210Z,19.90
2017-11-18T13:21:26.914Z,20.00
2017-11-18T13:22:32.445Z,20.00
2017-11-18T13:23:37.656Z,19.90
2017-11-18T13:24:43.583Z,19.90
2017-11-18T13:25:49.762Z,19.90
2017-11-18T13:26:57.326Z,19.80
2017-11-18T13:28:04.224Z,19.90
2017-11-18T13:29:09.747Z,19.90
2017-11-18T13:30:15.385Z,19.90
2017-11-18T13:31:20.706Z,19.90
2017-11-18T13:32:27.011Z,19.90
2017-11-18T13:33:33.101Z,19.90
2017-11-18T13:34:52.298Z,19.90
2017-11-18T13:36:00.158Z,19.80
2017-11-18T13:37:10.213Z,19.80
2017-11-18T13:38:19.141Z,19.80
2017-11-18T13:39:27.198Z,19.90
2017-11-18T13:40:34.592Z,19.90
2017-11-18T13:41:41.367Z,19.90
2017-11-18T13:42:46.774Z,19.80
2017-11-18T13:43:52.229Z,19.80
2017-11-18T13:44:57.931Z,19.80
2017-11-18T13:46:03.326Z,19.80
2017-11-18T13:47:09.110Z,19.70
2017-11-18T13:48:15.324Z,19.70
2017-11-18T13:49:20.548Z,19.70
2017-11-18T13:50:26.815Z,19.70
2017-11-18T13:51:33.426Z,19.60
2017-11-18T13:52:39.045Z,19.60
2017-11-18T13:53:44.914Z,19.60
2017-11-18T13:54:50.074Z,19.60
2017-11-18T13:55:55.324Z,19.60
2017-11-18T13:57:00.410Z,19.60
2017-11-18T13:58:05.556Z,19.60
2017-11-18T13:59:10.835Z,19.60
2017-11-18T14:00:16.152Z,19.60
2017-11-18T14:01:22.244Z,19.60
2017-11-18T14:02:27.960Z,19.60